MSC Chiara — H3RT — position and weather

sailwx.info

Track history (hours):
 
Tides and Currents Weather Stations Pressure Air Temp Water Temp Dewpoint Dewpoint Depression Visibility Wind Speed Wind Dir Waves Ship Positions

MSC Chiara

Last reported at 2015-Aug-02 11:33 UTC. Time now 2015-Aug-02 12:19 UTC.
Position S 29°41' E 031°10'.

Length 197 m; draft 8 m.

Type: Ship (hazmat cat A). MMSI: 352398000.

Date/timePositionNaut miles runAvg speedWind from/ knotsBaromVisibWave heightAir tempDewpointWater temp
2015-Aug-02 11:33S 29°41' E 031°10'0 0.1
2015-Aug-02 10:33S 29°41' E 031°10'0 0.1
2015-Aug-02 09:32S 29°41' E 031°10'0 0.0
2015-Aug-02 08:26S 29°41' E 031°10'0 0.0
2015-Aug-02 07:28S 29°41' E 031°10'0 0.1
2015-Aug-02 06:31S 29°41' E 031°10'0 0.1
2015-Aug-02 05:33S 29°41' E 031°10'0 0.0
2015-Aug-02 04:33S 29°41' E 031°10'0 0.0
2015-Aug-02 03:33S 29°41' E 031°10'0 0.0
2015-Aug-02 02:32S 29°41' E 031°10'0 0.0
2015-Aug-02 01:29S 29°41' E 031°10'0 0.0
2015-Aug-02 00:31S 29°41' E 031°10'0 0.0
2015-Aug-01 23:31S 29°41' E 031°10'0 0.0
2015-Aug-01 22:33S 29°41' E 031°10'0 0.0
2015-Aug-01 21:33S 29°41' E 031°10'0 0.0
2015-Aug-01 20:32S 29°41' E 031°10'0 0.0
2015-Aug-01 19:32S 29°41' E 031°10'0 0.0
2015-Aug-01 18:32S 29°41' E 031°10'0 0.1
2015-Aug-01 17:31S 29°41' E 031°10'0 0.1
2015-Aug-01 16:31S 29°41' E 031°10'0 0.0
2015-Aug-01 15:33S 29°41' E 031°10'0 0.0
2015-Aug-01 14:33S 29°41' E 031°10'0 0.0
2015-Aug-01 13:32S 29°41' E 031°10'0 0.0
2015-Aug-01 12:32S 29°41' E 031°10'0 0.0
2015-Aug-01 11:32S 29°41' E 031°10'0 0.0
2015-Aug-01 10:31S 29°41' E 031°10'0 0.0
2015-Aug-01 09:31S 29°41' E 031°10'0 0.0
2015-Aug-01 08:33S 29°41' E 031°10'0 0.0
2015-Aug-01 07:33S 29°41' E 031°10'0 0.0
2015-Aug-01 06:32S 29°41' E 031°10'0 0.0
2015-Aug-01 05:33S 29°41' E 031°10'4 3.8
2015-Aug-01 04:33S 29°42' E 031°14'7 7.4
2015-Aug-01 03:33S 29°49' E 031°14'1010.1
2015-Aug-01 02:33S 29°58' E 031°08'2 1.5
2015-Aug-01 01:33S 29°60' E 031°08'3 2.9
2015-Aug-01 00:33S 29°58' E 031°10'2 2.1
2015-Jul-31 23:33S 29°56' E 031°11'2 1.6
2015-Jul-31 22:33S 29°55' E 031°13'2 2.0
2015-Jul-31 21:33S 29°53' E 031°13'2 1.7
2015-Jul-31 20:33S 29°51' E 031°13'1 1.5
2015-Jul-31 19:33S 29°50' E 031°14'2 1.8
2015-Jul-31 18:33S 29°48' E 031°13'1 1.3
2015-Jul-31 17:33S 29°47' E 031°12'1 1.1
2015-Jul-31 16:34S 29°46' E 031°12'1 1.1
2015-Jul-31 15:34S 29°45' E 031°11'0 0.4
2015-Jul-31 14:33S 29°45' E 031°11'1 0.8
2015-Jul-31 13:33S 29°44' E 031°12'2 1.6
2015-Jul-31 12:34S 29°43' E 031°10'2 2.2
2015-Jul-31 11:33S 29°41' E 031°10'1 1.1
2015-Jul-31 10:33S 29°40' E 031°10'0 0.5
2015-Jul-31 09:33S 29°39' E 031°11'2 1.5
2015-Jul-31 08:32S 29°38' E 031°12'0 0.1
2015-Jul-31 07:32S 29°38' E 031°12'0 0.0
2015-Jul-31 06:31S 29°38' E 031°12'0 0.0
2015-Jul-31 05:31S 29°38' E 031°12'0 0.1
2015-Jul-31 04:31S 29°38' E 031°12'0 0.0
2015-Jul-31 03:33S 29°38' E 031°12'0 0.0
2015-Jul-31 02:33S 29°38' E 031°12'0 0.0
2015-Jul-31 01:32S 29°38' E 031°12'0 0.0
2015-Jul-31 00:32S 29°38' E 031°12'0 0.0
2015-Jul-30 23:31S 29°38' E 031°12'0 0.0
2015-Jul-30 22:31S 29°38' E 031°12'0 0.1
2015-Jul-30 21:31S 29°38' E 031°12'0 0.0
2015-Jul-30 20:33S 29°38' E 031°11'0 0.1
2015-Jul-30 19:30S 29°38' E 031°12'0 0.1
2015-Jul-30 18:32S 29°38' E 031°12'0 0.0
2015-Jul-30 17:32S 29°38' E 031°11'0 0.0
2015-Jul-30 16:31S 29°38' E 031°11'0 0.0
2015-Jul-30 15:31S 29°38' E 031°12'0 0.0
2015-Jul-30 14:31S 29°38' E 031°12'0 0.0
2015-Jul-30 13:33S 29°38' E 031°12'0 0.0
2015-Jul-30 12:33S 29°38' E 031°12'0 0.0
2015-Jul-30 11:32S 29°38' E 031°12'0 0.0
2015-Jul-30 10:32S 29°38' E 031°12'0 0.0
2015-Jul-30 09:31S 29°38' E 031°12'0 0.0
2015-Jul-30 08:31S 29°38' E 031°12'0 0.0
2015-Jul-30 07:31S 29°38' E 031°12'0 0.0
2015-Jul-30 06:33S 29°38' E 031°12'0 0.0
2015-Jul-30 05:33S 29°38' E 031°12'0 0.0
2015-Jul-30 04:32S 29°38' E 031°12'0 0.0
2015-Jul-30 03:32S 29°38' E 031°12'0 0.0
2015-Jul-30 02:31S 29°38' E 031°12'0 0.0
2015-Jul-30 01:31S 29°38' E 031°12'0 0.0
2015-Jul-30 00:31S 29°38' E 031°12'0 0.0
2015-Jul-29 23:33S 29°38' E 031°12'0 0.0
2015-Jul-29 22:30S 29°38' E 031°12'0 0.0
2015-Jul-29 21:32S 29°38' E 031°12'0 0.1
2015-Jul-29 20:32S 29°38' E 031°12'0 0.0
2015-Jul-29 19:31S 29°38' E 031°12'0 0.1
2015-Jul-29 18:31S 29°38' E 031°12'0 0.3
2015-Jul-29 17:30S 29°39' E 031°11'0 0.1
2015-Jul-29 16:33S 29°39' E 031°11'0 0.0
2015-Jul-29 15:33S 29°39' E 031°11'0 0.1
2015-Jul-29 14:32S 29°39' E 031°11'0 0.1
2015-Jul-29 13:32S 29°39' E 031°11'0 0.0
2015-Jul-29 12:31S 29°39' E 031°11'0 0.0
2015-Jul-29 11:31S 29°39' E 031°11'0 0.0
2015-Jul-29 10:34S 29°39' E 031°11'0 0.0
2015-Jul-29 09:33S 29°39' E 031°11'0 0.0
2015-Jul-29 08:33S 29°39' E 031°11'0 0.0
2015-Jul-29 07:29S 29°39' E 031°11'0 0.0
2015-Jul-29 06:32S 29°39' E 031°11'0 0.0
2015-Jul-29 05:31S 29°39' E 031°11'0 0.0
2015-Jul-29 04:31S 29°39' E 031°11'0 0.0
2015-Jul-29 03:33S 29°38' E 031°11'0 0.0
2015-Jul-29 02:33S 29°39' E 031°11'0 0.0
2015-Jul-29 01:33S 29°38' E 031°11'0 0.0
2015-Jul-29 00:32S 29°38' E 031°11'0 0.0
2015-Jul-28 23:32S 29°38' E 031°11'0 0.0
2015-Jul-28 22:31S 29°39' E 031°11'0 0.0
2015-Jul-28 21:31S 29°39' E 031°11'0 0.0
2015-Jul-28 20:33S 29°39' E 031°11'0 0.0
2015-Jul-28 19:33S 29°39' E 031°11'0 0.0
2015-Jul-28 18:33S 29°39' E 031°11'0 0.0
2015-Jul-28 17:32S 29°39' E 031°11'0 0.0
2015-Jul-28 16:32S 29°39' E 031°11'0 0.0
2015-Jul-28 15:31S 29°39' E 031°11'0 0.0
2015-Jul-28 14:31S 29°38' E 031°11'0 0.0
2015-Jul-28 13:33S 29°38' E 031°11'0 0.0
2015-Jul-28 12:33S 29°38' E 031°11'0 0.0
2015-Jul-28 11:33S 29°38' E 031°11'0 0.0
2015-Jul-28 10:32S 29°38' E 031°11'0 0.0
2015-Jul-28 09:32S 29°38' E 031°11'0 0.1
2015-Jul-28 08:28S 29°38' E 031°11'0 0.1
2015-Jul-28 07:28S 29°38' E 031°12'0 0.0
2015-Jul-28 06:33S 29°38' E 031°12'0 0.0
2015-Jul-28 05:33S 29°38' E 031°12'0 0.0
2015-Jul-28 04:33S 29°38' E 031°12'0 0.0
2015-Jul-28 03:32S 29°38' E 031°12'0 0.0
2015-Jul-28 02:32S 29°38' E 031°12'0 0.1
2015-Jul-28 01:31S 29°38' E 031°11'0 0.1
2015-Jul-28 00:31S 29°38' E 031°11'0 0.0
2015-Jul-27 23:33S 29°38' E 031°11'0 0.0
2015-Jul-27 22:33S 29°39' E 031°11'0 0.0
2015-Jul-27 21:33S 29°39' E 031°11'0 0.0
2015-Jul-27 20:32S 29°39' E 031°11'0 0.0
2015-Jul-27 19:32S 29°39' E 031°11'0 0.0
2015-Jul-27 18:31S 29°39' E 031°11'0 0.0
2015-Jul-27 17:28S 29°39' E 031°11'0 0.0
2015-Jul-27 16:33S 29°39' E 031°11'0 0.0
2015-Jul-27 15:33S 29°38' E 031°11'0 0.0
2015-Jul-27 14:33S 29°38' E 031°11'0 0.0
2015-Jul-27 13:29S 29°38' E 031°11'0 0.0
2015-Jul-27 12:32S 29°38' E 031°11'0 0.1
2015-Jul-27 11:32S 29°38' E 031°11'7 7.3
2015-Jul-27 10:33S 29°45' E 031°13'1313.0
2015-Jul-27 09:34S 29°58' E 031°08'1514.6
2015-Jul-27 08:33S 30°10' E 030°59'26213.6
2015-Jul-26 13:16S 33°24' E 027°32'1514.5
2015-Jul-26 12:14S 33°32' E 027°17'1414.8
2015-Jul-26 11:17S 33°40' E 027°03'1915.3
2015-Jul-26 10:03S 33°49' E 026°42'3116.0
2015-Jul-26 08:05S 33°54' E 026°05'1017.5
2015-Jul-26 07:30S 33°55' E 025°53'3 0.1
2015-Jul-24 23:07S 33°53' E 025°50'18310.3
2015-Jul-24 05:22S 32°19' E 028°58'2111.2
2015-Jul-24 03:27S 32°04' E 029°15'12313.7
2015-Jul-23 18:26S 30°28' E 030°47'1315.0
2015-Jul-23 17:32S 30°17' E 030°55'1515.5
2015-Jul-23 16:34S 30°04' E 031°04'1515.5
2015-Jul-23 15:33S 29°51' E 031°13'1211.5
2015-Jul-23 14:33S 29°39' E 031°11'0 0.3
2015-Jul-23 13:31S 29°39' E 031°11'0 0.0
2015-Jul-23 12:31S 29°39' E 031°11'0 0.1
2015-Jul-23 11:33S 29°39' E 031°11'  
Track history (hours):
 
Tides and Currents Weather Stations Pressure Air Temp Water Temp Dewpoint Dewpoint Depression Visibility Wind Speed Wind Dir Waves Ship Positions

MSC Chiara

Last reported at 2015-Aug-02 11:33 UTC. Time now 2015-Aug-02 12:19 UTC.
Position S 29°41' E 031°10'.

Length 197 m; draft 8 m.

Type: Ship (hazmat cat A). MMSI: 352398000.

Date/timePositionNaut miles runAvg speedWind from/ knotsBaromVisibWave heightAir tempDewpointWater temp
2015-Aug-02 11:33S 29°41' E 031°10'0 0.1
2015-Aug-02 10:33S 29°41' E 031°10'0 0.1
2015-Aug-02 09:32S 29°41' E 031°10'0 0.0
2015-Aug-02 08:26S 29°41' E 031°10'0 0.0
2015-Aug-02 07:28S 29°41' E 031°10'0 0.1
2015-Aug-02 06:31S 29°41' E 031°10'0 0.1
2015-Aug-02 05:33S 29°41' E 031°10'0 0.0
2015-Aug-02 04:33S 29°41' E 031°10'0 0.0
2015-Aug-02 03:33S 29°41' E 031°10'0 0.0
2015-Aug-02 02:32S 29°41' E 031°10'0 0.0
2015-Aug-02 01:29S 29°41' E 031°10'0 0.0
2015-Aug-02 00:31S 29°41' E 031°10'0 0.0
2015-Aug-01 23:31S 29°41' E 031°10'0 0.0
2015-Aug-01 22:33S 29°41' E 031°10'0 0.0
2015-Aug-01 21:33S 29°41' E 031°10'0 0.0
2015-Aug-01 20:32S 29°41' E 031°10'0 0.0
2015-Aug-01 19:32S 29°41' E 031°10'0 0.0
2015-Aug-01 18:32S 29°41' E 031°10'0 0.1
2015-Aug-01 17:31S 29°41' E 031°10'0 0.1
2015-Aug-01 16:31S 29°41' E 031°10'0 0.0
2015-Aug-01 15:33S 29°41' E 031°10'0 0.0
2015-Aug-01 14:33S 29°41' E 031°10'0 0.0
2015-Aug-01 13:32S 29°41' E 031°10'0 0.0
2015-Aug-01 12:32S 29°41' E 031°10'0 0.0
2015-Aug-01 11:32S 29°41' E 031°10'0 0.0
2015-Aug-01 10:31S 29°41' E 031°10'0 0.0
2015-Aug-01 09:31S 29°41' E 031°10'0 0.0
2015-Aug-01 08:33S 29°41' E 031°10'0 0.0
2015-Aug-01 07:33S 29°41' E 031°10'0 0.0
2015-Aug-01 06:32S 29°41' E 031°10'0 0.0
2015-Aug-01 05:33S 29°41' E 031°10'4 3.8
2015-Aug-01 04:33S 29°42' E 031°14'7 7.4
2015-Aug-01 03:33S 29°49' E 031°14'1010.1
2015-Aug-01 02:33S 29°58' E 031°08'2 1.5
2015-Aug-01 01:33S 29°60' E 031°08'3 2.9
2015-Aug-01 00:33S 29°58' E 031°10'2 2.1
2015-Jul-31 23:33S 29°56' E 031°11'2 1.6
2015-Jul-31 22:33S 29°55' E 031°13'2 2.0
2015-Jul-31 21:33S 29°53' E 031°13'2 1.7
2015-Jul-31 20:33S 29°51' E 031°13'1 1.5
2015-Jul-31 19:33S 29°50' E 031°14'2 1.8
2015-Jul-31 18:33S 29°48' E 031°13'1 1.3
2015-Jul-31 17:33S 29°47' E 031°12'1 1.1
2015-Jul-31 16:34S 29°46' E 031°12'1 1.1
2015-Jul-31 15:34S 29°45' E 031°11'0 0.4
2015-Jul-31 14:33S 29°45' E 031°11'1 0.8
2015-Jul-31 13:33S 29°44' E 031°12'2 1.6
2015-Jul-31 12:34S 29°43' E 031°10'2 2.2
2015-Jul-31 11:33S 29°41' E 031°10'1 1.1
2015-Jul-31 10:33S 29°40' E 031°10'0 0.5
2015-Jul-31 09:33S 29°39' E 031°11'2 1.5
2015-Jul-31 08:32S 29°38' E 031°12'0 0.1
2015-Jul-31 07:32S 29°38' E 031°12'0 0.0
2015-Jul-31 06:31S 29°38' E 031°12'0 0.0
2015-Jul-31 05:31S 29°38' E 031°12'0 0.1
2015-Jul-31 04:31S 29°38' E 031°12'0 0.0
2015-Jul-31 03:33S 29°38' E 031°12'0 0.0
2015-Jul-31 02:33S 29°38' E 031°12'0 0.0
2015-Jul-31 01:32S 29°38' E 031°12'0 0.0
2015-Jul-31 00:32S 29°38' E 031°12'0 0.0
2015-Jul-30 23:31S 29°38' E 031°12'0 0.0
2015-Jul-30 22:31S 29°38' E 031°12'0 0.1
2015-Jul-30 21:31S 29°38' E 031°12'0 0.0
2015-Jul-30 20:33S 29°38' E 031°11'0 0.1
2015-Jul-30 19:30S 29°38' E 031°12'0 0.1
2015-Jul-30 18:32S 29°38' E 031°12'0 0.0
2015-Jul-30 17:32S 29°38' E 031°11'0 0.0
2015-Jul-30 16:31S 29°38' E 031°11'0 0.0
2015-Jul-30 15:31S 29°38' E 031°12'0 0.0
2015-Jul-30 14:31S 29°38' E 031°12'0 0.0
2015-Jul-30 13:33S 29°38' E 031°12'0 0.0
2015-Jul-30 12:33S 29°38' E 031°12'0 0.0
2015-Jul-30 11:32S 29°38' E 031°12'0 0.0
2015-Jul-30 10:32S 29°38' E 031°12'0 0.0
2015-Jul-30 09:31S 29°38' E 031°12'0 0.0
2015-Jul-30 08:31S 29°38' E 031°12'0 0.0
2015-Jul-30 07:31S 29°38' E 031°12'0 0.0
2015-Jul-30 06:33S 29°38' E 031°12'0 0.0
2015-Jul-30 05:33S 29°38' E 031°12'0 0.0
2015-Jul-30 04:32S 29°38' E 031°12'0 0.0
2015-Jul-30 03:32S 29°38' E 031°12'0 0.0
2015-Jul-30 02:31S 29°38' E 031°12'0 0.0
2015-Jul-30 01:31S 29°38' E 031°12'0 0.0
2015-Jul-30 00:31S 29°38' E 031°12'0 0.0
2015-Jul-29 23:33S 29°38' E 031°12'0 0.0
2015-Jul-29 22:30S 29°38' E 031°12'0 0.0
2015-Jul-29 21:32S 29°38' E 031°12'0 0.1
2015-Jul-29 20:32S 29°38' E 031°12'0 0.0
2015-Jul-29 19:31S 29°38' E 031°12'0 0.1
2015-Jul-29 18:31S 29°38' E 031°12'0 0.3
2015-Jul-29 17:30S 29°39' E 031°11'0 0.1
2015-Jul-29 16:33S 29°39' E 031°11'0 0.0
2015-Jul-29 15:33S 29°39' E 031°11'0 0.1
2015-Jul-29 14:32S 29°39' E 031°11'0 0.1
2015-Jul-29 13:32S 29°39' E 031°11'0 0.0
2015-Jul-29 12:31S 29°39' E 031°11'0 0.0
2015-Jul-29 11:31S 29°39' E 031°11'0 0.0
2015-Jul-29 10:34S 29°39' E 031°11'0 0.0
2015-Jul-29 09:33S 29°39' E 031°11'0 0.0
2015-Jul-29 08:33S 29°39' E 031°11'0 0.0
2015-Jul-29 07:29S 29°39' E 031°11'0 0.0
2015-Jul-29 06:32S 29°39' E 031°11'0 0.0
2015-Jul-29 05:31S 29°39' E 031°11'0 0.0
2015-Jul-29 04:31S 29°39' E 031°11'0 0.0
2015-Jul-29 03:33S 29°38' E 031°11'0 0.0
2015-Jul-29 02:33S 29°39' E 031°11'0 0.0
2015-Jul-29 01:33S 29°38' E 031°11'0 0.0
2015-Jul-29 00:32S 29°38' E 031°11'0 0.0
2015-Jul-28 23:32S 29°38' E 031°11'0 0.0
2015-Jul-28 22:31S 29°39' E 031°11'0 0.0
2015-Jul-28 21:31S 29°39' E 031°11'0 0.0
2015-Jul-28 20:33S 29°39' E 031°11'0 0.0
2015-Jul-28 19:33S 29°39' E 031°11'0 0.0
2015-Jul-28 18:33S 29°39' E 031°11'0 0.0
2015-Jul-28 17:32S 29°39' E 031°11'0 0.0
2015-Jul-28 16:32S 29°39' E 031°11'0 0.0
2015-Jul-28 15:31S 29°39' E 031°11'0 0.0
2015-Jul-28 14:31S 29°38' E 031°11'0 0.0
2015-Jul-28 13:33S 29°38' E 031°11'0 0.0
2015-Jul-28 12:33S 29°38' E 031°11'0 0.0
2015-Jul-28 11:33S 29°38' E 031°11'0 0.0
2015-Jul-28 10:32S 29°38' E 031°11'0 0.0
2015-Jul-28 09:32S 29°38' E 031°11'0 0.1
2015-Jul-28 08:28S 29°38' E 031°11'0 0.1
2015-Jul-28 07:28S 29°38' E 031°12'0 0.0
2015-Jul-28 06:33S 29°38' E 031°12'0 0.0
2015-Jul-28 05:33S 29°38' E 031°12'0 0.0
2015-Jul-28 04:33S 29°38' E 031°12'0 0.0
2015-Jul-28 03:32S 29°38' E 031°12'0 0.0
2015-Jul-28 02:32S 29°38' E 031°12'0 0.1
2015-Jul-28 01:31S 29°38' E 031°11'0 0.1
2015-Jul-28 00:31S 29°38' E 031°11'0 0.0
2015-Jul-27 23:33S 29°38' E 031°11'0 0.0
2015-Jul-27 22:33S 29°39' E 031°11'0 0.0
2015-Jul-27 21:33S 29°39' E 031°11'0 0.0
2015-Jul-27 20:32S 29°39' E 031°11'0 0.0
2015-Jul-27 19:32S 29°39' E 031°11'0 0.0
2015-Jul-27 18:31S 29°39' E 031°11'0 0.0
2015-Jul-27 17:28S 29°39' E 031°11'0 0.0
2015-Jul-27 16:33S 29°39' E 031°11'0 0.0
2015-Jul-27 15:33S 29°38' E 031°11'0 0.0
2015-Jul-27 14:33S 29°38' E 031°11'0 0.0
2015-Jul-27 13:29S 29°38' E 031°11'0 0.0
2015-Jul-27 12:32S 29°38' E 031°11'0 0.1
2015-Jul-27 11:32S 29°38' E 031°11'7 7.3
2015-Jul-27 10:33S 29°45' E 031°13'1313.0
2015-Jul-27 09:34S 29°58' E 031°08'1514.6
2015-Jul-27 08:33S 30°10' E 030°59'26213.6
2015-Jul-26 13:16S 33°24' E 027°32'1514.5
2015-Jul-26 12:14S 33°32' E 027°17'1414.8
2015-Jul-26 11:17S 33°40' E 027°03'1915.3
2015-Jul-26 10:03S 33°49' E 026°42'3116.0
2015-Jul-26 08:05S 33°54' E 026°05'1017.5
2015-Jul-26 07:30S 33°55' E 025°53'3 0.1
2015-Jul-24 23:07S 33°53' E 025°50'18310.3
2015-Jul-24 05:22S 32°19' E 028°58'2111.2
2015-Jul-24 03:27S 32°04' E 029°15'12313.7
2015-Jul-23 18:26S 30°28' E 030°47'1315.0
2015-Jul-23 17:32S 30°17' E 030°55'1515.5
2015-Jul-23 16:34S 30°04' E 031°04'1515.5
2015-Jul-23 15:33S 29°51' E 031°13'1211.5
2015-Jul-23 14:33S 29°39' E 031°11'0 0.3
2015-Jul-23 13:31S 29°39' E 031°11'0 0.0
2015-Jul-23 12:31S 29°39' E 031°11'0 0.1
2015-Jul-23 11:33S 29°39' E 031°11'  

Dump ship's entire track history